sensor_id;sensor_type;location;lat;lon;timestamp;P1;durP1;ratioP1;P2;durP2;ratioP2
8978;SDS011;4524;51.364;5.448;2022-07-01T00:01:00;9.83;;;8.83;;
8978;SDS011;4524;51.364;5.448;2022-07-01T00:03:28;11.23;;;9.63;;
8978;SDS011;4524;51.364;5.448;2022-07-01T00:05:56;9.93;;;8.93;;
8978;SDS011;4524;51.364;5.448;2022-07-01T00:08:24;10.67;;;9.67;;
8978;SDS011;4524;51.364;5.448;2022-07-01T00:10:52;10.63;;;9.43;;
8978;SDS011;4524;51.364;5.448;2022-07-01T00:13:21;10.70;;;9.60;;
8978;SDS011;4524;51.364;5.448;2022-07-01T00:15:49;11.60;;;10.00;;
8978;SDS011;4524;51.364;5.448;2022-07-01T00:18:17;12.10;;;9.93;;
8978;SDS011;4524;51.364;5.448;2022-07-01T00:20:47;10.50;;;9.13;;
8978;SDS011;4524;51.364;5.448;2022-07-01T00:23:15;12.13;;;10.37;;
8978;SDS011;4524;51.364;5.448;2022-07-01T00:25:43;10.20;;;9.20;;
8978;SDS011;4524;51.364;5.448;2022-07-01T00:28:11;14.43;;;10.27;;
8978;SDS011;4524;51.364;5.448;2022-07-01T00:30:41;12.97;;;10.00;;
8978;SDS011;4524;51.364;5.448;2022-07-01T00:33:09;13.73;;;10.43;;
8978;SDS011;4524;51.364;5.448;2022-07-01T00:35:37;12.63;;;10.70;;
8978;SDS011;4524;51.364;5.448;2022-07-01T00:38:05;12.97;;;10.20;;
8978;SDS011;4524;51.364;5.448;2022-07-01T00:40:33;14.33;;;10.67;;
8978;SDS011;4524;51.364;5.448;2022-07-01T00:43:01;13.83;;;10.50;;
8978;SDS011;4524;51.364;5.448;2022-07-01T00:45:31;12.57;;;10.37;;
8978;SDS011;4524;51.364;5.448;2022-07-01T00:48:00;14.13;;;11.63;;
8978;SDS011;4524;51.364;5.448;2022-07-01T00:50:28;15.90;;;11.23;;
8978;SDS011;4524;51.364;5.448;2022-07-01T00:52:56;17.70;;;11.90;;
8978;SDS011;4524;51.364;5.448;2022-07-01T00:55:24;15.67;;;11.83;;
8978;SDS011;4524;51.364;5.448;2022-07-01T00:57:52;13.87;;;11.50;;
8978;SDS011;4524;51.364;5.448;2022-07-01T01:00:20;17.50;;;12.50;;
8978;SDS011;4524;51.364;5.448;2022-07-01T01:02:48;14.53;;;11.30;;
8978;SDS011;4524;51.364;5.448;2022-07-01T01:05:18;16.00;;;12.40;;
8978;SDS011;4524;51.364;5.448;2022-07-01T01:07:47;17.43;;;12.90;;
8978;SDS011;4524;51.364;5.448;2022-07-01T01:10:16;17.40;;;12.30;;
8978;SDS011;4524;51.364;5.448;2022-07-01T01:12:44;18.90;;;13.20;;
8978;SDS011;4524;51.364;5.448;2022-07-01T01:15:17;19.23;;;12.60;;
8978;SDS011;4524;51.364;5.448;2022-07-01T01:17:45;15.80;;;11.63;;
8978;SDS011;4524;51.364;5.448;2022-07-01T01:20:15;19.43;;;13.50;;
8978;SDS011;4524;51.364;5.448;2022-07-01T01:22:45;20.03;;;12.43;;
8978;SDS011;4524;51.364;5.448;2022-07-01T01:25:14;17.40;;;12.40;;
8978;SDS011;4524;51.364;5.448;2022-07-01T01:27:42;16.87;;;11.43;;
8978;SDS011;4524;51.364;5.448;2022-07-01T01:30:11;18.93;;;12.20;;
8978;SDS011;4524;51.364;5.448;2022-07-01T01:32:41;19.97;;;13.67;;
8978;SDS011;4524;51.364;5.448;2022-07-01T01:35:09;23.80;;;16.02;;
8978;SDS011;4524;51.364;5.448;2022-07-01T01:37:39;20.00;;;13.40;;
8978;SDS011;4524;51.364;5.448;2022-07-01T01:40:09;20.10;;;13.57;;
8978;SDS011;4524;51.364;5.448;2022-07-01T01:42:40;19.07;;;13.17;;
8978;SDS011;4524;51.364;5.448;2022-07-01T01:45:08;18.67;;;12.40;;
8978;SDS011;4524;51.364;5.448;2022-07-01T01:47:37;19.87;;;13.10;;
8978;SDS011;4524;51.364;5.448;2022-07-01T01:50:06;20.10;;;13.73;;
8978;SDS011;4524;51.364;5.448;2022-07-01T01:52:35;25.00;;;13.73;;
8978;SDS011;4524;51.364;5.448;2022-07-01T01:55:04;20.93;;;14.37;;
8978;SDS011;4524;51.364;5.448;2022-07-01T01:57:33;18.03;;;12.50;;
8978;SDS011;4524;51.364;5.448;2022-07-01T02:00:02;17.07;;;12.20;;
8978;SDS011;4524;51.364;5.448;2022-07-01T02:02:36;18.70;;;13.10;;
8978;SDS011;4524;51.364;5.448;2022-07-01T02:05:06;18.63;;;12.63;;
8978;SDS011;4524;51.364;5.448;2022-07-01T02:07:36;16.73;;;11.50;;
8978;SDS011;4524;51.364;5.448;2022-07-01T02:10:04;15.23;;;11.70;;
8978;SDS011;4524;51.364;5.448;2022-07-01T02:12:34;17.40;;;12.47;;
8978;SDS011;4524;51.364;5.448;2022-07-01T02:15:02;18.17;;;12.07;;
8978;SDS011;4524;51.364;5.448;2022-07-01T02:17:31;19.10;;;12.53;;
8978;SDS011;4524;51.364;5.448;2022-07-01T02:19:59;15.43;;;11.80;;
8978;SDS011;4524;51.364;5.448;2022-07-01T02:22:27;13.73;;;10.70;;
8978;SDS011;4524;51.364;5.448;2022-07-01T02:24:55;14.80;;;10.40;;
8978;SDS011;4524;51.364;5.448;2022-07-01T02:27:22;13.13;;;10.80;;
8978;SDS011;4524;51.364;5.448;2022-07-01T02:29:52;15.73;;;10.90;;
8978;SDS011;4524;51.364;5.448;2022-07-01T02:32:20;16.67;;;11.83;;
8978;SDS011;4524;51.364;5.448;2022-07-01T02:34:48;14.10;;;10.77;;
8978;SDS011;4524;51.364;5.448;2022-07-01T02:37:17;16.13;;;10.47;;
8978;SDS011;4524;51.364;5.448;2022-07-01T02:39:45;16.10;;;11.90;;
8978;SDS011;4524;51.364;5.448;2022-07-01T02:42:13;13.57;;;10.27;;
8978;SDS011;4524;51.364;5.448;2022-07-01T02:44:53;13.30;;;10.37;;
8978;SDS011;4524;51.364;5.448;2022-07-01T02:47:22;13.40;;;10.20;;
8978;SDS011;4524;51.364;5.448;2022-07-01T02:49:50;13.97;;;9.77;;
8978;SDS011;4524;51.364;5.448;2022-07-01T02:52:22;13.53;;;9.97;;
8978;SDS011;4524;51.364;5.448;2022-07-01T02:54:50;14.23;;;9.17;;
8978;SDS011;4524;51.364;5.448;2022-07-01T02:57:18;15.77;;;9.73;;
8978;SDS011;4524;51.364;5.448;2022-07-01T02:59:46;12.53;;;9.67;;
8978;SDS011;4524;51.364;5.448;2022-07-01T03:02:15;13.53;;;9.20;;
8978;SDS011;4524;51.364;5.448;2022-07-01T03:04:44;12.53;;;9.43;;
8978;SDS011;4524;51.364;5.448;2022-07-01T03:07:12;13.87;;;8.97;;
8978;SDS011;4524;51.364;5.448;2022-07-01T03:09:40;10.70;;;8.53;;
8978;SDS011;4524;51.364;5.448;2022-07-01T03:12:09;14.90;;;9.63;;
8978;SDS011;4524;51.364;5.448;2022-07-01T03:14:56;12.73;;;10.30;;
8978;SDS011;4524;51.364;5.448;2022-07-01T03:17:28;15.83;;;10.23;;
8978;SDS011;4524;51.364;5.448;2022-07-01T03:20:04;14.43;;;10.07;;
8978;SDS011;4524;51.364;5.448;2022-07-01T03:22:33;13.90;;;10.30;;
8978;SDS011;4524;51.364;5.448;2022-07-01T03:25:01;13.43;;;9.83;;
8978;SDS011;4524;51.364;5.448;2022-07-01T03:27:30;12.53;;;9.70;;
8978;SDS011;4524;51.364;5.448;2022-07-01T03:29:59;13.73;;;9.60;;
8978;SDS011;4524;51.364;5.448;2022-07-01T03:32:28;14.17;;;9.63;;
8978;SDS011;4524;51.364;5.448;2022-07-01T03:34:56;15.40;;;10.20;;
8978;SDS011;4524;51.364;5.448;2022-07-01T03:37:24;15.00;;;10.03;;
8978;SDS011;4524;51.364;5.448;2022-07-01T03:39:52;16.23;;;11.37;;
8978;SDS011;4524;51.364;5.448;2022-07-01T03:42:20;13.20;;;10.50;;
8978;SDS011;4524;51.364;5.448;2022-07-01T03:44:48;15.60;;;11.30;;
8978;SDS011;4524;51.364;5.448;2022-07-01T03:47:15;18.30;;;11.00;;
8978;SDS011;4524;51.364;5.448;2022-07-01T03:49:45;14.33;;;11.40;;
8978;SDS011;4524;51.364;5.448;2022-07-01T03:52:13;16.37;;;12.30;;
8978;SDS011;4524;51.364;5.448;2022-07-01T03:54:40;16.10;;;11.37;;
8978;SDS011;4524;51.364;5.448;2022-07-01T03:57:08;19.53;;;13.53;;
8978;SDS011;4524;51.364;5.448;2022-07-01T03:59:37;19.57;;;12.67;;
8978;SDS011;4524;51.364;5.448;2022-07-01T04:02:06;16.90;;;12.70;;
8978;SDS011;4524;51.364;5.448;2022-07-01T04:04:34;16.10;;;12.87;;
8978;SDS011;4524;51.364;5.448;2022-07-01T04:07:04;16.87;;;13.37;;
8978;SDS011;4524;51.364;5.448;2022-07-01T04:09:33;21.57;;;13.50;;
8978;SDS011;4524;51.364;5.448;2022-07-01T04:12:02;16.33;;;13.03;;
8978;SDS011;4524;51.364;5.448;2022-07-01T04:14:33;18.83;;;14.57;;
8978;SDS011;4524;51.364;5.448;2022-07-01T04:17:03;19.23;;;14.13;;
8978;SDS011;4524;51.364;5.448;2022-07-01T04:19:31;18.87;;;14.47;;
8978;SDS011;4524;51.364;5.448;2022-07-01T04:21:59;18.50;;;14.17;;
8978;SDS011;4524;51.364;5.448;2022-07-01T04:24:46;16.37;;;13.80;;
8978;SDS011;4524;51.364;5.448;2022-07-01T04:27:14;19.23;;;14.30;;
8978;SDS011;4524;51.364;5.448;2022-07-01T04:29:42;18.47;;;13.80;;
8978;SDS011;4524;51.364;5.448;2022-07-01T04:32:10;15.90;;;14.17;;
8978;SDS011;4524;51.364;5.448;2022-07-01T04:34:37;17.63;;;13.83;;
8978;SDS011;4524;51.364;5.448;2022-07-01T04:37:06;18.93;;;13.20;;
8978;SDS011;4524;51.364;5.448;2022-07-01T04:39:34;14.63;;;12.60;;
8978;SDS011;4524;51.364;5.448;2022-07-01T04:42:03;15.20;;;12.73;;
8978;SDS011;4524;51.364;5.448;2022-07-01T04:44:32;14.17;;;12.67;;
8978;SDS011;4524;51.364;5.448;2022-07-01T04:47:09;16.63;;;12.67;;
8978;SDS011;4524;51.364;5.448;2022-07-01T04:49:36;14.87;;;12.00;;
8978;SDS011;4524;51.364;5.448;2022-07-01T04:52:05;14.90;;;10.97;;
8978;SDS011;4524;51.364;5.448;2022-07-01T04:54:33;13.27;;;11.00;;
8978;SDS011;4524;51.364;5.448;2022-07-01T04:57:04;12.67;;;10.70;;
8978;SDS011;4524;51.364;5.448;2022-07-01T04:59:32;13.07;;;11.37;;
8978;SDS011;4524;51.364;5.448;2022-07-01T05:02:00;15.20;;;11.43;;
8978;SDS011;4524;51.364;5.448;2022-07-01T05:04:28;13.23;;;11.30;;
8978;SDS011;4524;51.364;5.448;2022-07-01T05:06:56;15.47;;;10.90;;
8978;SDS011;4524;51.364;5.448;2022-07-01T05:09:24;12.47;;;10.30;;
8978;SDS011;4524;51.364;5.448;2022-07-01T05:11:52;15.93;;;11.50;;
8978;SDS011;4524;51.364;5.448;2022-07-01T05:14:22;17.00;;;12.07;;
8978;SDS011;4524;51.364;5.448;2022-07-01T05:16:50;14.90;;;11.07;;
8978;SDS011;4524;51.364;5.448;2022-07-01T05:19:18;12.10;;;10.60;;
8978;SDS011;4524;51.364;5.448;2022-07-01T05:22:03;12.57;;;10.73;;
8978;SDS011;4524;51.364;5.448;2022-07-01T05:24:31;13.07;;;10.30;;
8978;SDS011;4524;51.364;5.448;2022-07-01T05:27:00;11.40;;;10.03;;
8978;SDS011;4524;51.364;5.448;2022-07-01T05:29:30;12.60;;;10.47;;
8978;SDS011;4524;51.364;5.448;2022-07-01T05:31:58;11.73;;;9.77;;
8978;SDS011;4524;51.364;5.448;2022-07-01T05:34:26;15.90;;;11.53;;
8978;SDS011;4524;51.364;5.448;2022-07-01T05:36:54;11.27;;;9.37;;
8978;SDS011;4524;51.364;5.448;2022-07-01T05:39:22;12.00;;;9.97;;
8978;SDS011;4524;51.364;5.448;2022-07-01T05:41:50;10.77;;;9.67;;
8978;SDS011;4524;51.364;5.448;2022-07-01T05:44:18;13.77;;;9.60;;
8978;SDS011;4524;51.364;5.448;2022-07-01T05:46:49;12.23;;;9.67;;
8978;SDS011;4524;51.364;5.448;2022-07-01T05:49:17;11.30;;;9.07;;
8978;SDS011;4524;51.364;5.448;2022-07-01T05:51:45;16.07;;;9.77;;
8978;SDS011;4524;51.364;5.448;2022-07-01T05:54:13;13.80;;;9.77;;
8978;SDS011;4524;51.364;5.448;2022-07-01T05:56:40;11.77;;;9.63;;
8978;SDS011;4524;51.364;5.448;2022-07-01T05:59:09;12.37;;;9.37;;
8978;SDS011;4524;51.364;5.448;2022-07-01T06:01:37;11.63;;;9.07;;
8978;SDS011;4524;51.364;5.448;2022-07-01T06:04:06;12.47;;;9.53;;
8978;SDS011;4524;51.364;5.448;2022-07-01T06:06:35;13.87;;;8.97;;
8978;SDS011;4524;51.364;5.448;2022-07-01T06:09:02;12.90;;;9.07;;
8978;SDS011;4524;51.364;5.448;2022-07-01T06:11:30;10.77;;;8.60;;
8978;SDS011;4524;51.364;5.448;2022-07-01T06:13:58;11.10;;;7.77;;
8978;SDS011;4524;51.364;5.448;2022-07-01T06:16:26;10.90;;;7.73;;
8978;SDS011;4524;51.364;5.448;2022-07-01T06:18:57;10.93;;;8.03;;
8978;SDS011;4524;51.364;5.448;2022-07-01T06:21:26;12.33;;;7.87;;
8978;SDS011;4524;51.364;5.448;2022-07-01T06:23:54;9.97;;;7.37;;
8978;SDS011;4524;51.364;5.448;2022-07-01T06:26:22;9.67;;;7.20;;
8978;SDS011;4524;51.364;5.448;2022-07-01T06:28:50;11.03;;;7.53;;
8978;SDS011;4524;51.364;5.448;2022-07-01T06:31:18;11.07;;;7.67;;
8978;SDS011;4524;51.364;5.448;2022-07-01T06:33:46;9.80;;;7.13;;
8978;SDS011;4524;51.364;5.448;2022-07-01T06:36:14;8.37;;;6.57;;
8978;SDS011;4524;51.364;5.448;2022-07-01T06:38:44;11.30;;;6.73;;
8978;SDS011;4524;51.364;5.448;2022-07-01T06:41:12;9.13;;;5.50;;
8978;SDS011;4524;51.364;5.448;2022-07-01T06:43:55;7.30;;;5.63;;
8978;SDS011;4524;51.364;5.448;2022-07-01T06:46:24;8.83;;;5.27;;
8978;SDS011;4524;51.364;5.448;2022-07-01T06:48:52;11.83;;;5.80;;
8978;SDS011;4524;51.364;5.448;2022-07-01T06:51:21;7.60;;;5.27;;
8978;SDS011;4524;51.364;5.448;2022-07-01T06:53:50;8.87;;;5.47;;
8978;SDS011;4524;51.364;5.448;2022-07-01T06:56:18;7.27;;;4.63;;
8978;SDS011;4524;51.364;5.448;2022-07-01T06:58:46;5.93;;;4.30;;
8978;SDS011;4524;51.364;5.448;2022-07-01T07:01:14;8.37;;;4.53;;
8978;SDS011;4524;51.364;5.448;2022-07-01T07:03:42;7.23;;;4.17;;
8978;SDS011;4524;51.364;5.448;2022-07-01T07:06:10;8.27;;;3.83;;
8978;SDS011;4524;51.364;5.448;2022-07-01T07:08:38;5.40;;;3.37;;
8978;SDS011;4524;51.364;5.448;2022-07-01T07:11:08;4.57;;;3.40;;
8978;SDS011;4524;51.364;5.448;2022-07-01T07:13:36;6.47;;;3.40;;
8978;SDS011;4524;51.364;5.448;2022-07-01T07:16:04;7.90;;;3.97;;
8978;SDS011;4524;51.364;5.448;2022-07-01T07:18:32;3.70;;;3.30;;
8978;SDS011;4524;51.364;5.448;2022-07-01T07:21:00;5.40;;;3.17;;
8978;SDS011;4524;51.364;5.448;2022-07-01T07:23:29;5.30;;;3.17;;
8978;SDS011;4524;51.364;5.448;2022-07-01T07:25:57;4.40;;;2.63;;
8978;SDS011;4524;51.364;5.448;2022-07-01T07:28:26;4.77;;;2.70;;
8978;SDS011;4524;51.364;5.448;2022-07-01T07:30:54;7.07;;;2.67;;
8978;SDS011;4524;51.364;5.448;2022-07-01T07:33:23;3.97;;;2.50;;
8978;SDS011;4524;51.364;5.448;2022-07-01T07:35:50;5.77;;;2.80;;
8978;SDS011;4524;51.364;5.448;2022-07-01T07:38:18;7.37;;;2.70;;
8978;SDS011;4524;51.364;5.448;2022-07-01T07:40:47;8.10;;;2.97;;
8978;SDS011;4524;51.364;5.448;2022-07-01T07:43:15;3.23;;;2.10;;
8978;SDS011;4524;51.364;5.448;2022-07-01T07:45:44;4.97;;;2.00;;
8978;SDS011;4524;51.364;5.448;2022-07-01T07:48:12;2.77;;;1.60;;
8978;SDS011;4524;51.364;5.448;2022-07-01T07:50:40;5.67;;;1.80;;
8978;SDS011;4524;51.364;5.448;2022-07-01T07:53:08;2.50;;;1.80;;
8978;SDS011;4524;51.364;5.448;2022-07-01T07:55:38;4.17;;;1.77;;
8978;SDS011;4524;51.364;5.448;2022-07-01T07:58:06;4.13;;;1.60;;
8978;SDS011;4524;51.364;5.448;2022-07-01T08:00:34;2.37;;;1.47;;
8978;SDS011;4524;51.364;5.448;2022-07-01T08:03:07;6.27;;;1.80;;
8978;SDS011;4524;51.364;5.448;2022-07-01T08:05:35;3.53;;;1.90;;
8978;SDS011;4524;51.364;5.448;2022-07-01T08:08:03;4.10;;;1.77;;
8978;SDS011;4524;51.364;5.448;2022-07-01T08:10:32;2.57;;;2.03;;
8978;SDS011;4524;51.364;5.448;2022-07-01T08:13:00;2.53;;;1.60;;
8978;SDS011;4524;51.364;5.448;2022-07-01T08:15:30;3.07;;;1.60;;
8978;SDS011;4524;51.364;5.448;2022-07-01T08:17:58;6.87;;;1.80;;
8978;SDS011;4524;51.364;5.448;2022-07-01T08:20:28;2.83;;;1.70;;
8978;SDS011;4524;51.364;5.448;2022-07-01T08:22:56;3.50;;;1.50;;
8978;SDS011;4524;51.364;5.448;2022-07-01T08:25:24;4.13;;;1.50;;
8978;SDS011;4524;51.364;5.448;2022-07-01T08:28:00;2.67;;;1.50;;
8978;SDS011;4524;51.364;5.448;2022-07-01T08:30:28;2.30;;;1.40;;
8978;SDS011;4524;51.364;5.448;2022-07-01T08:32:57;2.30;;;1.60;;
8978;SDS011;4524;51.364;5.448;2022-07-01T08:35:25;2.27;;;1.30;;
8978;SDS011;4524;51.364;5.448;2022-07-01T08:37:54;2.70;;;1.37;;
8978;SDS011;4524;51.364;5.448;2022-07-01T08:40:24;4.20;;;1.20;;
8978;SDS011;4524;51.364;5.448;2022-07-01T08:42:54;3.40;;;1.47;;
8978;SDS011;4524;51.364;5.448;2022-07-01T08:45:25;3.27;;;1.67;;
8978;SDS011;4524;51.364;5.448;2022-07-01T08:47:54;1.93;;;1.40;;
8978;SDS011;4524;51.364;5.448;2022-07-01T08:50:27;2.23;;;1.50;;
8978;SDS011;4524;51.364;5.448;2022-07-01T08:52:57;2.37;;;1.50;;
8978;SDS011;4524;51.364;5.448;2022-07-01T08:55:25;4.07;;;1.70;;
8978;SDS011;4524;51.364;5.448;2022-07-01T08:57:53;4.27;;;1.87;;
8978;SDS011;4524;51.364;5.448;2022-07-01T09:00:21;3.73;;;1.60;;
8978;SDS011;4524;51.364;5.448;2022-07-01T09:02:50;3.37;;;1.60;;
8978;SDS011;4524;51.364;5.448;2022-07-01T09:05:20;5.63;;;1.77;;
8978;SDS011;4524;51.364;5.448;2022-07-01T09:07:49;2.60;;;1.60;;
8978;SDS011;4524;51.364;5.448;2022-07-01T09:10:25;3.90;;;1.70;;
8978;SDS011;4524;51.364;5.448;2022-07-01T09:12:54;4.67;;;2.00;;
8978;SDS011;4524;51.364;5.448;2022-07-01T09:15:22;4.17;;;1.90;;
8978;SDS011;4524;51.364;5.448;2022-07-01T09:17:56;5.50;;;1.60;;
8978;SDS011;4524;51.364;5.448;2022-07-01T09:20:31;6.73;;;1.80;;
8978;SDS011;4524;51.364;5.448;2022-07-01T09:23:03;4.50;;;1.90;;
8978;SDS011;4524;51.364;5.448;2022-07-01T09:25:33;2.20;;;1.60;;
8978;SDS011;4524;51.364;5.448;2022-07-01T09:28:19;4.10;;;1.40;;
8978;SDS011;4524;51.364;5.448;2022-07-01T09:30:49;3.73;;;1.73;;
8978;SDS011;4524;51.364;5.448;2022-07-01T09:33:18;3.93;;;1.63;;
8978;SDS011;4524;51.364;5.448;2022-07-01T09:35:47;4.23;;;1.60;;
8978;SDS011;4524;51.364;5.448;2022-07-01T09:38:18;2.20;;;1.40;;
8978;SDS011;4524;51.364;5.448;2022-07-01T09:40:59;3.30;;;1.50;;
8978;SDS011;4524;51.364;5.448;2022-07-01T09:43:28;2.50;;;1.30;;
8978;SDS011;4524;51.364;5.448;2022-07-01T09:45:59;2.67;;;1.20;;
8978;SDS011;4524;51.364;5.448;2022-07-01T09:48:47;3.23;;;1.50;;
8978;SDS011;4524;51.364;5.448;2022-07-01T09:51:15;3.10;;;1.43;;
8978;SDS011;4524;51.364;5.448;2022-07-01T09:53:44;3.43;;;1.70;;
8978;SDS011;4524;51.364;5.448;2022-07-01T09:56:12;4.40;;;1.60;;
8978;SDS011;4524;51.364;5.448;2022-07-01T09:58:41;3.63;;;1.33;;
8978;SDS011;4524;51.364;5.448;2022-07-01T10:01:09;3.50;;;1.27;;
8978;SDS011;4524;51.364;5.448;2022-07-01T10:03:39;1.70;;;1.30;;
8978;SDS011;4524;51.364;5.448;2022-07-01T10:09:21;3.23;;;1.30;;
8978;SDS011;4524;51.364;5.448;2022-07-01T10:12:16;4.17;;;1.80;;
8978;SDS011;4524;51.364;5.448;2022-07-01T10:14:59;4.60;;;1.33;;
8978;SDS011;4524;51.364;5.448;2022-07-01T10:17:34;2.10;;;1.20;;
8978;SDS011;4524;51.364;5.448;2022-07-01T10:20:07;3.13;;;1.13;;
8978;SDS011;4524;51.364;5.448;2022-07-01T10:22:38;3.23;;;1.33;;
8978;SDS011;4524;51.364;5.448;2022-07-01T10:28:21;2.67;;;1.20;;
8978;SDS011;4524;51.364;5.448;2022-07-01T10:30:54;3.30;;;1.50;;
8978;SDS011;4524;51.364;5.448;2022-07-01T10:33:26;2.80;;;1.20;;
8978;SDS011;4524;51.364;5.448;2022-07-01T10:36:09;4.27;;;1.13;;
8978;SDS011;4524;51.364;5.448;2022-07-01T10:41:41;2.93;;;1.33;;
8978;SDS011;4524;51.364;5.448;2022-07-01T10:44:47;2.80;;;1.00;;
8978;SDS011;4524;51.364;5.448;2022-07-01T10:47:27;3.40;;;1.00;;
8978;SDS011;4524;51.364;5.448;2022-07-01T10:49:56;3.10;;;1.30;;
8978;SDS011;4524;51.364;5.448;2022-07-01T10:52:26;3.77;;;1.40;;
8978;SDS011;4524;51.364;5.448;2022-07-01T10:54:54;4.17;;;1.20;;
8978;SDS011;4524;51.364;5.448;2022-07-01T10:57:27;3.10;;;1.00;;
8978;SDS011;4524;51.364;5.448;2022-07-01T11:03:06;2.50;;;1.20;;
8978;SDS011;4524;51.364;5.448;2022-07-01T11:05:36;2.97;;;1.50;;
8978;SDS011;4524;51.364;5.448;2022-07-01T11:08:05;3.50;;;1.20;;
8978;SDS011;4524;51.364;5.448;2022-07-01T11:10:37;2.40;;;1.20;;
8978;SDS011;4524;51.364;5.448;2022-07-01T11:13:06;6.00;;;1.20;;
8978;SDS011;4524;51.364;5.448;2022-07-01T11:15:36;1.83;;;1.03;;
8978;SDS011;4524;51.364;5.448;2022-07-01T11:18:05;2.70;;;1.10;;
8978;SDS011;4524;51.364;5.448;2022-07-01T11:20:34;2.40;;;1.30;;
8978;SDS011;4524;51.364;5.448;2022-07-01T11:23:02;4.77;;;1.53;;
8978;SDS011;4524;51.364;5.448;2022-07-01T11:25:30;3.37;;;1.10;;
8978;SDS011;4524;51.364;5.448;2022-07-01T11:27:58;2.20;;;1.23;;
8978;SDS011;4524;51.364;5.448;2022-07-01T11:30:26;2.87;;;1.10;;
8978;SDS011;4524;51.364;5.448;2022-07-01T11:32:57;1.87;;;1.10;;
8978;SDS011;4524;51.364;5.448;2022-07-01T11:35:25;4.13;;;1.30;;
8978;SDS011;4524;51.364;5.448;2022-07-01T11:38:14;3.77;;;1.40;;
8978;SDS011;4524;51.364;5.448;2022-07-01T11:41:01;3.70;;;1.40;;
8978;SDS011;4524;51.364;5.448;2022-07-01T11:43:31;3.70;;;1.27;;
8978;SDS011;4524;51.364;5.448;2022-07-01T11:46:02;2.10;;;1.30;;
8978;SDS011;4524;51.364;5.448;2022-07-01T11:48:33;3.43;;;1.37;;
8978;SDS011;4524;51.364;5.448;2022-07-01T11:51:08;4.23;;;1.50;;
8978;SDS011;4524;51.364;5.448;2022-07-01T11:53:38;2.33;;;1.10;;
8978;SDS011;4524;51.364;5.448;2022-07-01T11:56:08;3.30;;;1.20;;
8978;SDS011;4524;51.364;5.448;2022-07-01T11:58:42;3.63;;;1.27;;
8978;SDS011;4524;51.364;5.448;2022-07-01T12:01:19;4.13;;;1.10;;
8978;SDS011;4524;51.364;5.448;2022-07-01T12:03:49;3.43;;;1.30;;
8978;SDS011;4524;51.364;5.448;2022-07-01T12:06:17;3.77;;;1.30;;
8978;SDS011;4524;51.364;5.448;2022-07-01T12:08:46;3.63;;;1.20;;
8978;SDS011;4524;51.364;5.448;2022-07-01T12:11:15;2.97;;;1.27;;
8978;SDS011;4524;51.364;5.448;2022-07-01T12:13:44;4.23;;;1.47;;
8978;SDS011;4524;51.364;5.448;2022-07-01T12:16:13;2.77;;;1.30;;
8978;SDS011;4524;51.364;5.448;2022-07-01T12:18:54;1.90;;;1.30;;
8978;SDS011;4524;51.364;5.448;2022-07-01T12:21:23;2.67;;;1.13;;
8978;SDS011;4524;51.364;5.448;2022-07-01T12:24:02;3.63;;;1.10;;
8978;SDS011;4524;51.364;5.448;2022-07-01T12:26:47;4.13;;;1.20;;
8978;SDS011;4524;51.364;5.448;2022-07-01T12:29:16;4.23;;;1.30;;
8978;SDS011;4524;51.364;5.448;2022-07-01T12:31:53;2.80;;;1.40;;
8978;SDS011;4524;51.364;5.448;2022-07-01T12:34:27;2.90;;;1.20;;
8978;SDS011;4524;51.364;5.448;2022-07-01T12:37:07;2.07;;;1.07;;
8978;SDS011;4524;51.364;5.448;2022-07-01T12:39:44;1.57;;;1.17;;
8978;SDS011;4524;51.364;5.448;2022-07-01T12:42:19;3.57;;;1.30;;
8978;SDS011;4524;51.364;5.448;2022-07-01T12:44:51;2.03;;;1.10;;
8978;SDS011;4524;51.364;5.448;2022-07-01T12:47:20;4.40;;;1.30;;
8978;SDS011;4524;51.364;5.448;2022-07-01T12:52:42;2.43;;;1.40;;
8978;SDS011;4524;51.364;5.448;2022-07-01T12:55:16;2.27;;;1.30;;
8978;SDS011;4524;51.364;5.448;2022-07-01T12:57:45;3.90;;;1.40;;
8978;SDS011;4524;51.364;5.448;2022-07-01T13:00:15;2.23;;;1.30;;
8978;SDS011;4524;51.364;5.448;2022-07-01T13:02:43;3.37;;;1.43;;
8978;SDS011;4524;51.364;5.448;2022-07-01T13:05:12;4.50;;;1.53;;
8978;SDS011;4524;51.364;5.448;2022-07-01T13:07:41;5.00;;;1.80;;
8978;SDS011;4524;51.364;5.448;2022-07-01T13:10:11;4.37;;;1.40;;
8978;SDS011;4524;51.364;5.448;2022-07-01T13:12:40;5.40;;;1.57;;
8978;SDS011;4524;51.364;5.448;2022-07-01T13:15:10;4.37;;;1.60;;
8978;SDS011;4524;51.364;5.448;2022-07-01T13:17:38;1.67;;;1.30;;
8978;SDS011;4524;51.364;5.448;2022-07-01T13:20:07;2.87;;;1.50;;
8978;SDS011;4524;51.364;5.448;2022-07-01T13:22:37;3.80;;;1.43;;
8978;SDS011;4524;51.364;5.448;2022-07-01T13:25:05;2.67;;;1.87;;
8978;SDS011;4524;51.364;5.448;2022-07-01T13:27:35;3.90;;;1.30;;
8978;SDS011;4524;51.364;5.448;2022-07-01T13:30:03;3.80;;;1.60;;
8978;SDS011;4524;51.364;5.448;2022-07-01T13:32:32;4.87;;;1.80;;
8978;SDS011;4524;51.364;5.448;2022-07-01T13:35:00;3.03;;;1.50;;
8978;SDS011;4524;51.364;5.448;2022-07-01T13:37:29;4.73;;;1.93;;
8978;SDS011;4524;51.364;5.448;2022-07-01T13:39:58;2.50;;;1.60;;
8978;SDS011;4524;51.364;5.448;2022-07-01T13:42:26;2.63;;;1.50;;
8978;SDS011;4524;51.364;5.448;2022-07-01T13:44:54;1.97;;;1.50;;
8978;SDS011;4524;51.364;5.448;2022-07-01T13:47:22;2.60;;;1.40;;
8978;SDS011;4524;51.364;5.448;2022-07-01T13:49:51;2.93;;;1.70;;
8978;SDS011;4524;51.364;5.448;2022-07-01T13:52:19;3.37;;;1.70;;
8978;SDS011;4524;51.364;5.448;2022-07-01T13:54:51;3.07;;;1.43;;
8978;SDS011;4524;51.364;5.448;2022-07-01T13:57:21;2.60;;;1.23;;
8978;SDS011;4524;51.364;5.448;2022-07-01T13:59:49;3.83;;;1.27;;
8978;SDS011;4524;51.364;5.448;2022-07-01T14:02:18;1.43;;;1.30;;
8978;SDS011;4524;51.364;5.448;2022-07-01T14:04:46;2.13;;;1.47;;
8978;SDS011;4524;51.364;5.448;2022-07-01T14:07:15;4.10;;;1.43;;
8978;SDS011;4524;51.364;5.448;2022-07-01T14:09:43;2.00;;;1.30;;
8978;SDS011;4524;51.364;5.448;2022-07-01T14:12:11;3.03;;;1.50;;
8978;SDS011;4524;51.364;5.448;2022-07-01T14:14:54;2.37;;;1.40;;
8978;SDS011;4524;51.364;5.448;2022-07-01T14:17:22;4.90;;;1.47;;
8978;SDS011;4524;51.364;5.448;2022-07-01T14:19:50;1.87;;;1.23;;
8978;SDS011;4524;51.364;5.448;2022-07-01T14:22:18;2.47;;;1.40;;
8978;SDS011;4524;51.364;5.448;2022-07-01T14:24:46;2.50;;;1.20;;
8978;SDS011;4524;51.364;5.448;2022-07-01T14:27:14;2.00;;;1.20;;
8978;SDS011;4524;51.364;5.448;2022-07-01T14:29:42;2.97;;;1.27;;
8978;SDS011;4524;51.364;5.448;2022-07-01T14:32:11;1.87;;;1.17;;
8978;SDS011;4524;51.364;5.448;2022-07-01T14:34:39;1.70;;;1.10;;
8978;SDS011;4524;51.364;5.448;2022-07-01T14:37:08;1.93;;;1.20;;
8978;SDS011;4524;51.364;5.448;2022-07-01T14:39:36;1.83;;;1.30;;
8978;SDS011;4524;51.364;5.448;2022-07-01T14:42:04;3.00;;;1.33;;
8978;SDS011;4524;51.364;5.448;2022-07-01T14:44:33;1.87;;;1.17;;
8978;SDS011;4524;51.364;5.448;2022-07-01T14:47:01;2.87;;;1.23;;
8978;SDS011;4524;51.364;5.448;2022-07-01T14:49:31;2.33;;;1.60;;
8978;SDS011;4524;51.364;5.448;2022-07-01T14:52:02;1.67;;;1.10;;
8978;SDS011;4524;51.364;5.448;2022-07-01T14:54:30;4.10;;;1.23;;
8978;SDS011;4524;51.364;5.448;2022-07-01T14:56:58;1.97;;;1.20;;
8978;SDS011;4524;51.364;5.448;2022-07-01T14:59:26;3.63;;;1.33;;
8978;SDS011;4524;51.364;5.448;2022-07-01T15:01:54;2.10;;;1.30;;
8978;SDS011;4524;51.364;5.448;2022-07-01T15:04:26;1.67;;;1.13;;
8978;SDS011;4524;51.364;5.448;2022-07-01T15:06:55;3.67;;;1.57;;
8978;SDS011;4524;51.364;5.448;2022-07-01T15:09:23;4.30;;;1.30;;
8978;SDS011;4524;51.364;5.448;2022-07-01T15:11:52;3.70;;;1.60;;
8978;SDS011;4524;51.364;5.448;2022-07-01T15:14:21;5.60;;;1.60;;
8978;SDS011;4524;51.364;5.448;2022-07-01T15:16:49;6.77;;;1.50;;
8978;SDS011;4524;51.364;5.448;2022-07-01T15:19:17;7.07;;;1.80;;
8978;SDS011;4524;51.364;5.448;2022-07-01T15:21:45;5.23;;;1.60;;
8978;SDS011;4524;51.364;5.448;2022-07-01T15:24:21;4.67;;;1.70;;
8978;SDS011;4524;51.364;5.448;2022-07-01T15:26:49;4.43;;;1.67;;
8978;SDS011;4524;51.364;5.448;2022-07-01T15:29:19;3.67;;;1.70;;
8978;SDS011;4524;51.364;5.448;2022-07-01T15:31:47;4.13;;;1.67;;
8978;SDS011;4524;51.364;5.448;2022-07-01T15:34:17;5.50;;;1.50;;
8978;SDS011;4524;51.364;5.448;2022-07-01T15:36:45;3.80;;;1.80;;